createdAt,value
2023-05-02T00:00:23.586Z,98.45
2023-05-02T00:01:23.547Z,98.04
2023-05-02T00:02:23.684Z,98.35
2023-05-02T00:03:23.579Z,97.22
2023-05-02T00:04:23.664Z,97.88
2023-05-02T00:05:23.523Z,97.47
2023-05-02T00:06:23.564Z,97.98
2023-05-02T00:07:23.487Z,97.47
2023-05-02T00:08:23.530Z,97.47
2023-05-02T00:09:23.477Z,96.86
2023-05-02T00:10:23.482Z,96.66
2023-05-02T00:11:23.499Z,95.94
2023-05-02T00:12:23.464Z,95.43
2023-05-02T00:13:23.439Z,96.04
2023-05-02T00:14:23.492Z,95.94
2023-05-02T00:15:23.438Z,95.73
2023-05-02T00:16:23.453Z,95.32
2023-05-02T00:17:23.571Z,95.32
2023-05-02T00:18:23.424Z,95.32
2023-05-02T00:19:23.396Z,94.92
2023-05-02T00:20:23.408Z,95.43
2023-05-02T00:21:23.373Z,94.10
2023-05-02T00:22:23.384Z,93.69
2023-05-02T00:23:23.349Z,93.99
2023-05-02T00:24:23.358Z,93.48
2023-05-02T00:25:23.341Z,93.28
2023-05-02T00:26:23.429Z,93.07
2023-05-02T00:27:23.319Z,92.97
2023-05-02T00:28:23.323Z,93.18
2023-05-02T00:29:23.304Z,92.97
2023-05-02T00:30:23.321Z,93.18
2023-05-02T00:31:23.308Z,92.66
2023-05-02T00:32:23.377Z,92.77
2023-05-02T00:33:23.266Z,93.18
2023-05-02T00:34:23.274Z,94.14
2023-05-02T00:35:23.248Z,95.17
2023-05-02T00:36:23.253Z,94.75
2023-05-02T00:37:23.233Z,95.67
2023-05-02T00:38:23.302Z,95.26
2023-05-02T00:39:23.231Z,95.78
2023-05-02T00:40:23.216Z,95.67
2023-05-02T00:41:23.232Z,95.67
2023-05-02T00:42:23.210Z,96.19
2023-05-02T00:43:23.189Z,96.70
2023-05-02T00:44:23.242Z,97.00
2023-05-02T00:45:23.173Z,97.87
2023-05-02T00:46:23.270Z,97.41
2023-05-02T00:47:23.151Z,97.66
2023-05-02T00:48:23.171Z,97.82
2023-05-02T00:49:23.128Z,96.49
2023-05-02T00:50:23.161Z,96.70
2023-05-02T00:51:23.117Z,96.70
2023-05-02T00:52:23.123Z,95.98
2023-05-02T00:53:23.101Z,95.98
2023-05-02T00:54:23.102Z,95.88
2023-05-02T00:55:23.125Z,96.19
2023-05-02T00:56:23.120Z,96.08
2023-05-02T00:57:23.159Z,95.43
2023-05-02T00:58:23.076Z,95.78
2023-05-02T00:59:23.077Z,95.78
2023-05-02T01:00:23.056Z,94.96
2023-05-02T01:01:23.087Z,95.26
2023-05-02T01:02:23.266Z,95.67
2023-05-02T01:03:23.084Z,95.37
2023-05-02T01:04:23.032Z,95.17
2023-05-02T01:05:23.003Z,95.67
2023-05-02T01:06:23.049Z,95.98
2023-05-02T01:07:23.025Z,95.57
2023-05-02T01:08:22.992Z,96.04
2023-05-02T01:09:22.961Z,95.88
2023-05-02T01:10:22.993Z,95.67
2023-05-02T01:11:22.958Z,95.26
2023-05-02T01:12:22.962Z,95.26
2023-05-02T01:13:22.956Z,96.49
2023-05-02T01:14:22.948Z,96.13
2023-05-02T01:15:22.942Z,96.39
2023-05-02T01:16:22.973Z,96.08
2023-05-02T01:17:22.949Z,95.26
2023-05-02T01:18:22.926Z,95.67
2023-05-02T01:19:22.877Z,95.72
2023-05-02T01:20:22.885Z,95.31
2023-05-02T01:21:22.884Z,95.67
2023-05-02T01:22:22.873Z,95.17
2023-05-02T01:23:22.865Z,95.37
2023-05-02T01:24:22.867Z,94.96
2023-05-02T01:25:22.848Z,94.55
2023-05-02T01:26:22.831Z,93.84
2023-05-02T01:27:22.819Z,93.84
2023-05-02T01:28:22.795Z,94.24
2023-05-02T01:29:22.799Z,94.04
2023-05-02T01:30:22.806Z,93.63
2023-05-02T01:31:22.800Z,94.04
2023-05-02T01:32:22.778Z,93.63
2023-05-02T01:33:22.779Z,93.84
2023-05-02T01:34:22.760Z,94.24
2023-05-02T01:35:22.765Z,94.55
2023-05-02T01:36:22.784Z,94.70
2023-05-02T01:37:22.748Z,95.00
2023-05-02T01:38:22.731Z,95.21
2023-05-02T01:39:22.767Z,95.31
2023-05-02T01:40:22.750Z,95.00
2023-05-02T01:41:22.715Z,95.31
2023-05-02T01:42:22.728Z,94.29
2023-05-02T01:43:22.703Z,95.00
2023-05-02T01:44:22.678Z,95.00
2023-05-02T01:45:22.694Z,95.00
2023-05-02T01:46:22.684Z,94.90
2023-05-02T01:47:22.720Z,95.41
2023-05-02T01:48:22.681Z,96.33
2023-05-02T01:49:22.662Z,95.31
2023-05-02T01:50:22.633Z,95.72
2023-05-02T01:51:22.647Z,96.44
2023-05-02T01:52:22.632Z,96.33
2023-05-02T01:53:22.609Z,95.82
2023-05-02T01:54:22.621Z,96.23
2023-05-02T01:55:22.607Z,96.74
2023-05-02T01:56:22.605Z,97.25
2023-05-02T01:57:22.577Z,96.95
2023-05-02T01:58:22.572Z,97.05
2023-05-02T01:59:22.576Z,96.95
2023-05-02T02:00:22.559Z,97.05
2023-05-02T02:01:22.581Z,96.74
2023-05-02T02:02:22.543Z,96.74
2023-05-02T02:03:22.594Z,96.95
2023-05-02T02:04:22.556Z,96.70
2023-05-02T02:05:22.528Z,96.84
2023-05-02T02:06:22.572Z,96.54
2023-05-02T02:07:22.499Z,96.23
2023-05-02T02:08:22.484Z,96.39
2023-05-02T02:09:22.488Z,96.49
2023-05-02T02:10:22.471Z,96.29
2023-05-02T02:11:22.479Z,96.49
2023-05-02T02:12:22.587Z,95.88
2023-05-02T02:13:22.477Z,96.23
2023-05-02T02:14:22.444Z,95.98
2023-05-02T02:15:22.462Z,95.37
2023-05-02T02:16:22.438Z,95.62
2023-05-02T02:17:22.409Z,95.51
2023-05-02T02:18:22.469Z,95.41
2023-05-02T02:19:22.406Z,95.51
2023-05-02T02:20:22.386Z,95.41
2023-05-02T02:21:22.393Z,95.62
2023-05-02T02:22:22.375Z,95.21
2023-05-02T02:23:22.375Z,95.10
2023-05-02T02:24:22.381Z,95.41
2023-05-02T02:25:22.361Z,95.31
2023-05-02T02:26:22.345Z,95.62
2023-05-02T02:27:22.350Z,95.21
2023-05-02T02:28:22.349Z,94.90
2023-05-02T02:29:22.320Z,95.21
2023-05-02T02:30:22.379Z,95.51
2023-05-02T02:31:22.327Z,95.51
2023-05-02T02:32:22.377Z,95.00
2023-05-02T02:33:22.289Z,94.43
2023-05-02T02:34:22.288Z,94.49
2023-05-02T02:35:22.273Z,94.23
2023-05-02T02:36:22.283Z,94.95
2023-05-02T02:37:22.277Z,94.74
2023-05-02T02:38:22.242Z,94.49
2023-05-02T02:39:22.247Z,94.74
2023-05-02T02:40:22.252Z,94.02
2023-05-02T02:41:22.232Z,94.12
2023-05-02T02:42:22.261Z,94.12
2023-05-02T02:43:22.224Z,93.82
2023-05-02T02:44:22.181Z,93.82
2023-05-02T02:45:22.189Z,94.23
2023-05-02T02:46:22.222Z,94.37
2023-05-02T02:47:22.171Z,94.07
2023-05-02T02:48:22.173Z,94.37
2023-05-02T02:49:22.156Z,94.68
2023-05-02T02:50:22.139Z,94.58
2023-05-02T02:51:22.143Z,95.50
2023-05-02T02:52:22.115Z,95.24
2023-05-02T02:53:22.196Z,95.44
2023-05-02T02:54:27.053Z,95.54
2023-05-02T02:55:23.108Z,96.37
2023-05-02T02:56:22.085Z,96.06
2023-05-02T02:57:22.080Z,96.31
2023-05-02T02:58:22.066Z,96.57
2023-05-02T02:59:22.092Z,96.72
2023-05-02T03:00:22.171Z,96.98
2023-05-02T03:01:22.145Z,96.72
2023-05-02T03:02:22.041Z,96.62
2023-05-02T03:03:22.143Z,97.13
2023-05-02T03:04:22.058Z,97.54
2023-05-02T03:05:22.043Z,97.85
2023-05-02T03:06:22.126Z,97.13
2023-05-02T03:07:22.000Z,96.92
2023-05-02T03:08:21.981Z,97.33
2023-05-02T03:09:21.977Z,97.03
2023-05-02T03:10:21.975Z,96.92
2023-05-02T03:11:22.023Z,96.82
2023-05-02T03:12:21.965Z,96.92
2023-05-02T03:13:21.953Z,96.72
2023-05-02T03:14:21.948Z,97.44
2023-05-02T03:15:21.941Z,97.85
2023-05-02T03:16:21.995Z,97.64
2023-05-02T03:17:23.800Z,97.64
2023-05-02T03:18:21.906Z,97.79
2023-05-02T03:19:21.999Z,97.99
2023-05-02T03:20:21.891Z,97.44
2023-05-02T03:21:21.904Z,97.44
2023-05-02T03:22:21.873Z,97.54
2023-05-02T03:23:21.918Z,97.85
2023-05-02T03:24:21.860Z,96.92
2023-05-02T03:25:21.855Z,97.03
2023-05-02T03:26:21.827Z,98.16
2023-05-02T03:27:21.830Z,96.92
2023-05-02T03:28:21.836Z,97.03
2023-05-02T03:29:21.842Z,96.67
2023-05-02T03:30:21.805Z,96.20
2023-05-02T03:31:21.932Z,96.26
2023-05-02T03:32:21.806Z,96.06
2023-05-02T03:33:21.789Z,96.41
2023-05-02T03:34:21.768Z,96.10
2023-05-02T03:35:21.825Z,96.57
2023-05-02T03:36:21.770Z,96.57
2023-05-02T03:37:21.780Z,96.41
2023-05-02T03:38:21.727Z,95.79
2023-05-02T03:39:21.747Z,95.95
2023-05-02T03:40:21.847Z,95.65
2023-05-02T03:41:21.748Z,95.39
2023-05-02T03:42:21.718Z,96.00
2023-05-02T03:43:21.724Z,96.62
2023-05-02T03:44:21.700Z,96.62
2023-05-02T03:45:21.691Z,95.49
2023-05-02T03:46:21.731Z,96.72
2023-05-02T03:47:21.742Z,96.10
2023-05-02T03:48:21.674Z,96.10
2023-05-02T03:49:21.645Z,95.90
2023-05-02T03:50:21.635Z,96.20
2023-05-02T03:51:21.631Z,96.10
2023-05-02T03:52:21.613Z,96.51
2023-05-02T03:53:21.648Z,96.00
2023-05-02T03:54:21.614Z,96.10
2023-05-02T03:55:21.597Z,96.10
2023-05-02T03:56:21.590Z,96.06
2023-05-02T03:57:21.590Z,96.72
2023-05-02T03:58:21.635Z,96.26
2023-05-02T03:59:21.568Z,96.57
2023-05-02T04:00:21.547Z,96.37
2023-05-02T04:01:21.564Z,96.47
2023-05-02T04:02:21.565Z,96.47
2023-05-02T04:03:21.618Z,96.47
2023-05-02T04:04:21.567Z,96.41
2023-05-02T04:05:21.516Z,96.16
2023-05-02T04:06:21.610Z,96.57
2023-05-02T04:07:21.508Z,97.08
2023-05-02T04:08:21.481Z,96.16
2023-05-02T04:09:21.479Z,96.47
2023-05-02T04:10:21.468Z,96.37
2023-05-02T04:11:21.479Z,96.16
2023-05-02T04:12:21.492Z,97.19
2023-05-02T04:13:21.478Z,97.08
2023-05-02T04:14:21.507Z,97.08
2023-05-02T04:15:21.437Z,97.19
2023-05-02T04:16:21.453Z,96.98
2023-05-02T04:17:21.442Z,97.19
2023-05-02T04:18:21.416Z,97.19
2023-05-02T04:19:21.454Z,97.80
2023-05-02T04:20:21.420Z,98.00
2023-05-02T04:21:21.423Z,97.39
2023-05-02T04:22:21.371Z,98.11
2023-05-02T04:23:21.378Z,97.70
2023-05-02T04:24:21.362Z,97.70
2023-05-02T04:25:21.407Z,97.91
2023-05-02T04:26:21.336Z,97.55
2023-05-02T04:27:21.335Z,98.21
2023-05-02T04:28:21.311Z,98.21
2023-05-02T04:29:21.342Z,98.32
2023-05-02T04:30:21.329Z,98.32
2023-05-02T04:31:21.386Z,98.16
2023-05-02T04:32:21.293Z,98.27
2023-05-02T04:33:21.407Z,97.91
2023-05-02T04:34:21.290Z,97.75
2023-05-02T04:35:21.579Z,97.70
2023-05-02T04:36:21.277Z,97.75
2023-05-02T04:37:21.329Z,97.34
2023-05-02T04:38:21.251Z,97.24
2023-05-02T04:39:21.249Z,97.45
2023-05-02T04:40:21.240Z,97.34
2023-05-02T04:41:21.239Z,97.34
2023-05-02T04:42:21.245Z,97.75
2023-05-02T04:43:23.213Z,97.81
2023-05-02T04:44:21.201Z,96.58
2023-05-02T04:45:21.202Z,97.75
2023-05-02T04:46:21.197Z,97.96
2023-05-02T04:47:21.216Z,97.50
2023-05-02T04:48:29.846Z,97.91
2023-05-02T04:49:21.200Z,96.69
2023-05-02T04:50:21.161Z,96.89
2023-05-02T04:51:21.187Z,96.89
2023-05-02T04:52:21.127Z,96.89
2023-05-02T04:53:21.218Z,96.48
2023-05-02T04:54:21.409Z,96.69
2023-05-02T04:55:21.115Z,96.48
2023-05-02T04:56:21.095Z,96.48
2023-05-02T04:57:23.274Z,96.28
2023-05-02T04:58:21.226Z,96.28
2023-05-02T04:59:21.155Z,96.79
2023-05-02T05:00:21.116Z,96.99
2023-05-02T05:01:21.105Z,97.04
2023-05-02T05:02:21.057Z,96.69
2023-05-02T05:03:21.299Z,97.09
2023-05-02T05:04:21.057Z,96.99
2023-05-02T05:05:21.180Z,96.79
2023-05-02T05:06:21.201Z,96.58
2023-05-02T05:07:21.084Z,97.81
2023-05-02T05:08:20.995Z,96.79
2023-05-02T05:09:21.494Z,97.30
2023-05-02T05:10:22.919Z,95.87
2023-05-02T05:11:23.958Z,96.38
2023-05-02T05:12:23.398Z,96.28
2023-05-02T05:16:21.553Z,95.47
2023-05-02T05:17:20.653Z,95.26
2023-05-02T05:18:20.049Z,95.32
2023-05-02T05:19:20.036Z,95.43
2023-05-02T05:20:22.581Z,93.79
2023-05-02T05:22:57.381Z,93.48
2023-05-02T05:23:57.481Z,93.79
2023-05-02T05:24:57.394Z,93.69
2023-05-02T05:25:57.364Z,93.79
2023-05-02T05:26:57.386Z,93.63
2023-05-02T05:27:57.349Z,94.20
2023-05-02T05:28:57.347Z,93.93
2023-05-02T05:29:57.431Z,94.14
2023-05-02T05:30:57.335Z,94.10
2023-05-02T05:31:57.326Z,94.45
2023-05-02T05:32:57.452Z,93.84
2023-05-02T05:33:57.365Z,94.10
2023-05-02T05:34:57.286Z,93.79
2023-05-02T05:35:57.320Z,93.48
2023-05-02T05:36:57.299Z,93.99
2023-05-02T05:37:57.281Z,94.04
2023-05-02T05:38:57.312Z,94.40
2023-05-02T05:39:57.335Z,94.14
2023-05-02T05:40:57.242Z,94.14
2023-05-02T05:41:57.247Z,94.39
2023-05-02T05:42:57.251Z,95.06
2023-05-02T05:43:57.218Z,95.26
2023-05-02T05:44:57.268Z,94.60
2023-05-02T05:45:57.246Z,94.10
2023-05-02T05:46:57.284Z,93.13
2023-05-02T05:47:57.265Z,92.72
2023-05-02T05:48:57.197Z,92.83
2023-05-02T05:49:57.194Z,92.58
2023-05-02T05:50:57.191Z,90.49
2023-05-02T05:51:57.154Z,89.73
2023-05-02T05:52:57.152Z,89.37
2023-05-02T05:53:57.137Z,89.08
2023-05-02T05:54:57.168Z,88.88
2023-05-02T05:55:57.139Z,89.34
2023-05-02T05:56:57.189Z,88.59
2023-05-02T05:57:57.124Z,87.84
2023-05-02T05:58:57.110Z,86.22
2023-05-02T05:59:57.238Z,83.34
2023-05-02T06:00:57.111Z,81.93
2023-05-02T06:01:57.077Z,81.29
2023-05-02T06:02:57.417Z,80.46
2023-05-02T06:03:57.148Z,78.37
2023-05-02T06:04:57.312Z,79.70
2023-05-02T06:05:57.033Z,82.05
2023-05-02T06:06:57.140Z,83.62
2023-05-02T06:07:57.011Z,84.64
2023-05-02T06:08:57.059Z,82.48
2023-05-02T06:09:57.036Z,81.09
2023-05-02T06:10:57.009Z,80.10
2023-05-02T06:11:56.996Z,78.67
2023-05-02T06:12:57.039Z,78.91
2023-05-02T06:13:57.017Z,76.64
2023-05-02T06:14:57.001Z,76.33
2023-05-02T06:15:56.967Z,75.90
2023-05-02T06:16:56.963Z,78.17
2023-05-02T06:17:57.010Z,77.65
2023-05-02T06:18:56.940Z,75.38
2023-05-02T06:19:56.959Z,75.73
2023-05-02T06:20:56.909Z,77.08
2023-05-02T06:21:56.891Z,77.32
2023-05-02T06:22:56.888Z,76.74
2023-05-02T06:23:56.885Z,76.87
2023-05-02T06:24:56.881Z,78.88
2023-05-02T06:25:56.884Z,81.93
2023-05-02T06:26:56.889Z,82.28
2023-05-02T06:27:56.854Z,83.76
2023-05-02T06:28:56.884Z,82.45
2023-05-02T06:29:56.848Z,82.34
2023-05-02T06:30:56.844Z,81.98
2023-05-02T06:31:56.978Z,82.68
2023-05-02T06:32:56.886Z,84.01
2023-05-02T06:33:56.799Z,84.42
2023-05-02T06:34:56.807Z,84.28
2023-05-02T06:35:56.966Z,81.96
2023-05-02T06:36:56.794Z,81.35
2023-05-02T06:37:56.799Z,81.53
2023-05-02T06:38:56.771Z,83.29
2023-05-02T06:39:56.751Z,84.11
2023-05-02T06:40:56.801Z,83.67
2023-05-02T06:41:56.725Z,82.61
2023-05-02T06:42:56.718Z,82.10
2023-05-02T06:43:56.754Z,82.06
2023-05-02T06:44:56.695Z,81.72
2023-05-02T06:45:56.692Z,79.82
2023-05-02T06:46:56.797Z,76.56
2023-05-02T06:47:56.733Z,75.89
2023-05-02T06:48:56.665Z,75.92
2023-05-02T06:49:56.679Z,75.21
2023-05-02T06:50:56.668Z,73.83
2023-05-02T06:51:56.650Z,70.53
2023-05-02T06:52:56.643Z,69.51
2023-05-02T06:53:56.673Z,71.88
2023-05-02T06:54:56.678Z,74.04
2023-05-02T06:55:56.639Z,72.58
2023-05-02T06:56:56.618Z,73.46
2023-05-02T06:57:56.603Z,70.05
2023-05-02T06:58:56.617Z,71.26
2023-05-02T06:59:56.691Z,71.20
2023-05-02T07:00:56.634Z,72.48
2023-05-02T07:01:56.622Z,70.89
2023-05-02T07:02:56.662Z,73.22
2023-05-02T07:03:56.555Z,72.48
2023-05-02T07:04:56.552Z,73.90
2023-05-02T07:05:56.529Z,72.89
2023-05-02T07:06:56.578Z,72.65
2023-05-02T07:07:56.540Z,72.96
2023-05-02T07:08:56.510Z,73.09
2023-05-02T07:09:56.528Z,73.29
2023-05-02T07:10:56.483Z,74.04
2023-05-02T07:11:56.475Z,73.46
2023-05-02T07:12:56.504Z,74.51
2023-05-02T07:13:56.451Z,74.82
2023-05-02T07:14:56.531Z,75.43
2023-05-02T07:15:56.476Z,73.60
2023-05-02T07:16:56.542Z,73.50
2023-05-02T07:17:56.473Z,73.90
2023-05-02T07:18:56.444Z,73.70
2023-05-02T07:19:56.394Z,73.50
2023-05-02T07:20:56.390Z,73.06
2023-05-02T07:21:56.375Z,73.66
2023-05-02T07:22:56.781Z,72.14
2023-05-02T07:23:56.377Z,71.53
2023-05-02T07:24:56.398Z,72.55
2023-05-02T07:25:56.348Z,72.55
2023-05-02T07:26:56.355Z,72.65
2023-05-02T07:27:56.355Z,71.84
2023-05-02T07:28:56.332Z,71.91
2023-05-02T07:29:56.318Z,72.48
2023-05-02T07:30:56.335Z,74.07
2023-05-02T07:31:56.359Z,69.54
2023-05-02T07:32:56.312Z,69.04
2023-05-02T07:33:56.273Z,67.99
2023-05-02T07:34:56.342Z,67.52
2023-05-02T07:35:56.248Z,67.25
2023-05-02T07:36:56.295Z,68.90
2023-05-02T07:37:56.241Z,69.84
2023-05-02T07:38:56.260Z,69.44
2023-05-02T07:39:56.239Z,71.09
2023-05-02T07:40:56.229Z,70.32
2023-05-02T07:41:56.234Z,71.44
2023-05-02T07:42:56.234Z,70.92
2023-05-02T07:43:56.227Z,71.53
2023-05-02T07:44:56.194Z,71.57
2023-05-02T07:45:56.330Z,71.33
2023-05-02T07:46:56.181Z,71.77
2023-05-02T07:47:56.202Z,71.77
2023-05-02T07:48:56.209Z,70.96
2023-05-02T07:49:56.172Z,71.80
2023-05-02T07:50:56.132Z,72.85
2023-05-02T07:51:56.178Z,73.16
2023-05-02T07:52:56.151Z,72.85
2023-05-02T07:53:56.129Z,73.67
2023-05-02T07:54:56.150Z,73.46
2023-05-02T07:55:56.110Z,73.80
2023-05-02T07:56:56.087Z,73.70
2023-05-02T07:57:56.087Z,74.96
2023-05-02T07:58:56.066Z,74.35
2023-05-02T07:59:56.087Z,74.76
2023-05-02T08:00:56.081Z,75.81
2023-05-02T08:01:56.069Z,75.70
2023-05-02T08:02:56.104Z,75.91
2023-05-02T08:03:56.252Z,76.11
2023-05-02T08:04:56.050Z,75.81
2023-05-02T08:05:56.025Z,76.68
2023-05-02T08:06:56.022Z,75.77
2023-05-02T08:07:56.003Z,76.11
2023-05-02T08:08:55.977Z,77.67
2023-05-02T08:09:56.024Z,77.26
2023-05-02T08:10:56.027Z,77.53
2023-05-02T08:11:56.056Z,76.38
2023-05-02T08:12:55.947Z,76.65
2023-05-02T08:13:55.956Z,75.49
2023-05-02T08:14:55.933Z,75.19
2023-05-02T08:15:55.964Z,74.01
2023-05-02T08:16:55.976Z,75.98
2023-05-02T08:17:55.993Z,75.77
2023-05-02T08:18:55.884Z,74.31
2023-05-02T08:19:55.888Z,74.79
2023-05-02T08:20:55.897Z,74.38
2023-05-02T08:21:55.881Z,74.34
2023-05-02T08:22:57.519Z,73.70
2023-05-02T08:23:55.891Z,71.53
2023-05-02T08:24:55.865Z,71.30
2023-05-02T08:25:55.867Z,72.31
2023-05-02T08:26:55.834Z,70.25
2023-05-02T08:27:55.906Z,70.04
2023-05-02T08:28:55.837Z,70.15
2023-05-02T08:29:57.395Z,71.44
2023-05-02T08:30:55.802Z,71.13
2023-05-02T08:31:55.838Z,69.07
2023-05-02T08:32:55.792Z,69.84
2023-05-02T08:33:55.813Z,68.83
2023-05-02T08:34:55.755Z,68.12
2023-05-02T08:35:55.772Z,69.27
2023-05-02T08:36:58.224Z,69.54
2023-05-02T08:37:55.741Z,69.51
2023-05-02T08:38:55.734Z,67.42
2023-05-02T08:39:55.779Z,66.88
2023-05-02T08:40:55.717Z,63.92
2023-05-02T08:41:55.746Z,65.73
2023-05-02T08:42:55.688Z,64.90
2023-05-02T08:43:55.700Z,67.39
2023-05-02T08:44:55.745Z,61.63
2023-05-02T08:45:55.732Z,62.71
2023-05-02T08:46:55.706Z,62.90
2023-05-02T08:47:55.734Z,66.16
2023-05-02T08:48:55.636Z,67.31
2023-05-02T08:49:55.644Z,67.76
2023-05-02T08:50:55.638Z,65.70
2023-05-02T08:51:55.676Z,65.12
2023-05-02T08:52:55.613Z,67.95
2023-05-02T08:53:55.618Z,67.92
2023-05-02T08:54:55.594Z,67.44
2023-05-02T08:55:55.604Z,69.00
2023-05-02T08:56:55.583Z,69.68
2023-05-02T08:57:55.595Z,68.26
2023-05-02T08:58:55.545Z,67.24
2023-05-02T08:59:55.622Z,67.65
2023-05-02T09:00:55.551Z,67.88
2023-05-02T09:01:55.564Z,67.88
2023-05-02T09:02:55.668Z,68.90
2023-05-02T09:03:55.579Z,69.10
2023-05-02T09:04:55.504Z,69.30
2023-05-02T09:05:55.525Z,69.30
2023-05-02T09:06:55.501Z,69.40
2023-05-02T09:07:55.492Z,68.49
2023-05-02T09:08:55.515Z,69.51
2023-05-02T09:09:55.498Z,69.13
2023-05-02T09:10:55.457Z,68.56
2023-05-02T09:11:55.468Z,64.99
2023-05-02T09:12:55.451Z,63.24
2023-05-02T09:13:55.449Z,63.10
2023-05-02T09:14:55.420Z,64.62
2023-05-02T09:15:55.447Z,64.32
2023-05-02T09:16:55.503Z,65.90
2023-05-02T09:17:55.538Z,67.69
2023-05-02T09:18:55.387Z,67.69
2023-05-02T09:19:55.381Z,64.21
2023-05-02T09:20:55.381Z,67.92
2023-05-02T09:21:55.424Z,68.73
2023-05-02T09:22:55.394Z,67.76
2023-05-02T09:23:55.358Z,67.22
2023-05-02T09:24:55.354Z,66.74
2023-05-02T09:25:55.348Z,63.54
2023-05-02T09:26:55.346Z,63.24
2023-05-02T09:27:55.455Z,63.38
2023-05-02T09:28:55.302Z,64.09
2023-05-02T09:29:55.317Z,62.67
2023-05-02T09:30:55.337Z,61.53
2023-05-02T09:31:56.654Z,61.66
2023-05-02T09:32:55.652Z,63.93
2023-05-02T09:33:55.282Z,63.36
2023-05-02T09:34:55.241Z,60.28
2023-05-02T09:35:55.253Z,60.28
2023-05-02T09:36:55.229Z,60.64
2023-05-02T09:37:55.231Z,62.19
2023-05-02T09:38:55.230Z,66.16
2023-05-02T09:39:55.228Z,65.12
2023-05-02T09:40:55.219Z,65.32
2023-05-02T09:41:55.268Z,67.72
2023-05-02T09:42:55.185Z,67.24
2023-05-02T09:43:55.191Z,67.51
2023-05-02T09:44:55.174Z,67.61
2023-05-02T09:45:55.247Z,67.21
2023-05-02T09:46:55.144Z,67.11
2023-05-02T09:47:55.541Z,67.11
2023-05-02T09:48:55.200Z,67.38
2023-05-02T09:49:55.138Z,67.89
2023-05-02T09:50:55.142Z,69.03
2023-05-02T09:51:55.121Z,67.79
2023-05-02T09:52:55.104Z,67.18
2023-05-02T09:53:55.104Z,67.89
2023-05-02T09:54:55.074Z,67.68
2023-05-02T09:55:55.091Z,66.84
2023-05-02T09:56:55.048Z,67.18
2023-05-02T09:57:55.050Z,69.41
2023-05-02T09:58:55.028Z,67.45
2023-05-02T09:59:55.027Z,67.14
2023-05-02T10:00:55.026Z,66.84
2023-05-02T10:01:55.116Z,66.33
2023-05-02T10:02:55.054Z,65.73
2023-05-02T10:03:55.024Z,64.89
2023-05-02T10:04:54.982Z,64.07
2023-05-02T10:05:55.182Z,65.53
2023-05-02T10:06:54.989Z,64.28
2023-05-02T10:07:55.024Z,64.35
2023-05-02T10:08:54.953Z,63.01
2023-05-02T10:09:54.949Z,63.44
2023-05-02T10:10:54.920Z,63.27
2023-05-02T10:11:54.952Z,63.87
2023-05-02T10:12:54.935Z,63.34
2023-05-02T10:13:54.913Z,63.89
2023-05-02T10:14:54.910Z,60.75
2023-05-02T10:15:54.959Z,63.41
2023-05-02T10:16:54.882Z,64.04
2023-05-02T10:17:54.920Z,63.67
2023-05-02T10:18:54.891Z,63.17
2023-05-02T10:19:55.741Z,63.37
2023-05-02T10:20:54.866Z,64.18
2023-05-02T10:21:54.868Z,62.96
2023-05-02T10:22:54.883Z,63.78
2023-05-02T10:23:54.867Z,65.70
2023-05-02T10:24:54.863Z,63.04
2023-05-02T10:25:54.827Z,63.01
2023-05-02T10:26:54.798Z,61.66
2023-05-02T10:27:54.861Z,63.61
2023-05-02T10:28:54.799Z,63.08
2023-05-02T10:29:54.775Z,61.72
2023-05-02T10:30:54.819Z,64.07
2023-05-02T10:31:54.800Z,65.89
2023-05-02T10:32:54.807Z,66.74
2023-05-02T10:33:54.834Z,67.00
2023-05-02T10:34:54.752Z,66.43
2023-05-02T10:35:54.735Z,67.68
2023-05-02T10:36:54.721Z,65.21
2023-05-02T10:37:54.716Z,66.26
2023-05-02T10:38:54.700Z,66.46
2023-05-02T10:39:54.714Z,66.86
2023-05-02T10:40:54.725Z,67.27
2023-05-02T10:41:54.686Z,65.99
2023-05-02T10:42:54.660Z,67.41
2023-05-02T10:43:54.671Z,66.90
2023-05-02T10:44:54.645Z,65.58
2023-05-02T10:45:54.655Z,66.83
2023-05-02T10:46:54.757Z,65.27
2023-05-02T10:47:54.702Z,66.02
2023-05-02T10:48:54.630Z,67.47
2023-05-02T10:49:54.608Z,67.67
2023-05-02T10:50:54.669Z,67.57
2023-05-02T10:51:54.596Z,67.27
2023-05-02T10:52:54.575Z,67.80
2023-05-02T10:53:54.593Z,68.11
2023-05-02T10:54:54.585Z,69.87
2023-05-02T10:55:54.550Z,70.25
2023-05-02T10:56:54.528Z,70.04
2023-05-02T10:57:54.538Z,70.04
2023-05-02T10:58:54.688Z,69.81
2023-05-02T10:59:54.553Z,68.66
2023-05-02T11:00:54.534Z,70.08
2023-05-02T11:01:54.532Z,68.42
2023-05-02T11:02:54.591Z,67.41
2023-05-02T11:03:54.502Z,67.00
2023-05-02T11:04:54.455Z,67.71
2023-05-02T11:05:54.465Z,67.64
2023-05-02T11:06:54.478Z,69.37
2023-05-02T11:07:54.464Z,69.40
2023-05-02T11:08:54.422Z,69.74
2023-05-02T11:09:54.481Z,71.12
2023-05-02T11:10:54.406Z,69.30
2023-05-02T11:11:54.413Z,69.17
2023-05-02T11:12:54.416Z,69.98
2023-05-02T11:13:54.462Z,68.62
2023-05-02T11:14:54.387Z,69.37
2023-05-02T11:15:54.435Z,68.66
2023-05-02T11:16:54.441Z,69.87
2023-05-02T11:17:54.427Z,70.08
2023-05-02T11:18:54.413Z,69.87
2023-05-02T11:19:54.394Z,69.26
2023-05-02T11:20:54.584Z,69.23
2023-05-02T11:21:54.347Z,70.04
2023-05-02T11:22:54.309Z,69.23
2023-05-02T11:23:54.315Z,68.62
2023-05-02T11:24:54.310Z,69.64
2023-05-02T11:25:54.407Z,71.30
2023-05-02T11:26:54.296Z,72.08
2023-05-02T11:27:54.312Z,71.60
2023-05-02T11:28:54.259Z,73.36
2023-05-02T11:29:54.262Z,73.53
2023-05-02T11:30:55.997Z,74.65
2023-05-02T11:31:54.251Z,75.09
2023-05-02T11:32:54.420Z,76.65
2023-05-02T11:33:54.251Z,78.21
2023-05-02T11:34:54.226Z,79.37
2023-05-02T11:35:54.194Z,81.20
2023-05-02T11:36:54.181Z,82.56
2023-05-02T11:37:54.204Z,82.05
2023-05-02T11:38:54.184Z,82.60
2023-05-02T11:39:54.158Z,83.72
2023-05-02T11:40:54.144Z,84.74
2023-05-02T11:41:54.154Z,86.06
2023-05-02T11:42:54.227Z,85.72
2023-05-02T11:43:54.154Z,86.22
2023-05-02T11:44:54.120Z,85.72
2023-05-02T11:45:54.153Z,86.27
2023-05-02T11:46:54.111Z,86.53
2023-05-02T11:47:54.198Z,86.74
2023-05-02T11:48:54.121Z,85.58
2023-05-02T11:49:54.101Z,86.43
2023-05-02T11:50:54.052Z,86.49
2023-05-02T11:51:54.073Z,86.29
2023-05-02T11:52:54.034Z,86.69
2023-05-02T11:53:54.052Z,87.10
2023-05-02T11:54:54.068Z,86.86
2023-05-02T11:55:54.024Z,85.74
2023-05-02T11:56:54.047Z,86.21
2023-05-02T11:57:54.049Z,85.84
2023-05-02T11:58:54.012Z,84.17
2023-05-02T11:59:53.996Z,82.65
2023-05-02T12:00:53.974Z,84.28
2023-05-02T12:01:53.988Z,83.42
2023-05-02T12:02:54.016Z,81.09
2023-05-02T12:03:53.972Z,81.66
2023-05-02T12:04:53.965Z,81.45
2023-05-02T12:05:54.034Z,81.05
2023-05-02T12:06:54.007Z,82.03
2023-05-02T12:07:53.964Z,79.25
2023-05-02T12:08:53.924Z,80.44
2023-05-02T12:09:53.900Z,81.45
2023-05-02T12:10:53.906Z,81.62
2023-05-02T12:11:53.879Z,80.60
2023-05-02T12:12:53.905Z,78.85
2023-05-02T12:13:53.866Z,80.24
2023-05-02T12:14:53.866Z,80.24
2023-05-02T12:15:53.892Z,80.96
2023-05-02T12:16:53.834Z,81.84
2023-05-02T12:17:53.896Z,79.80
2023-05-02T12:18:53.862Z,80.35
2023-05-02T12:19:53.810Z,81.57
2023-05-02T12:20:53.832Z,81.67
2023-05-02T12:21:53.793Z,82.20
2023-05-02T12:22:53.797Z,81.19
2023-05-02T12:23:53.792Z,81.39
2023-05-02T12:24:53.892Z,80.64
2023-05-02T12:25:53.751Z,80.07
2023-05-02T12:26:53.803Z,79.63
2023-05-02T12:27:53.789Z,82.01
2023-05-02T12:28:53.747Z,81.04
2023-05-02T12:29:53.727Z,81.27
2023-05-02T12:30:53.779Z,81.74
2023-05-02T12:31:53.827Z,82.26
2023-05-02T12:32:53.747Z,83.98
2023-05-02T12:33:53.687Z,81.95
2023-05-02T12:34:53.861Z,81.65
2023-05-02T12:35:53.677Z,81.30
2023-05-02T12:36:53.699Z,81.30
2023-05-02T12:37:53.692Z,79.23
2023-05-02T12:38:54.566Z,80.82
2023-05-02T12:39:53.676Z,79.23
2023-05-02T12:40:53.648Z,80.49
2023-05-02T12:41:53.613Z,82.68
2023-05-02T12:42:53.622Z,79.60
2023-05-02T12:43:53.660Z,78.95
2023-05-02T12:44:53.657Z,78.24
2023-05-02T12:45:53.660Z,78.24
2023-05-02T12:46:53.713Z,80.29
2023-05-02T12:47:53.623Z,79.81
2023-05-02T12:48:53.563Z,80.18
2023-05-02T12:49:53.575Z,80.11
2023-05-02T12:50:53.591Z,80.22
2023-05-02T12:51:53.532Z,79.88
2023-05-02T12:52:53.541Z,80.38
2023-05-02T12:53:53.505Z,79.43
2023-05-02T12:54:53.543Z,78.15
2023-05-02T12:55:53.544Z,79.77
2023-05-02T12:56:53.530Z,80.38